Sims, Illinois
Current Conditions -  °F | °C
As of 8:55 AM on Friday 19 Dec 2014 (Local Time) from KFWC Reporting Station
Haze Haze  
Wind Chill: 30°   Ceiling: Unl
Heat Index: 30°   Visibility: 5mi
Dew Point: 26°   Wind: 3mph
Humidity: 83%   Direction: 70°ENE
Pressure: 30.33"   Gusts: NA
Location:  38.36°N, 88.53°W
Report Text: KFWC 191455Z AUTO 07003KT 5SM HZ CLR M01/M04 A3033 RMK AO1 T10111036
Loading
Personal Weather Stations






























Interactive Weather Map New forecast layout! Learn more

10-Day Weather Forecast

Advertisements
Track Severe Weather on mobile